createdAt,value
2023-04-01T13:03:54.158Z,55.0098
2023-04-01T13:04:55.780Z,53.8376
2023-04-01T13:05:57.148Z,55.0369
2023-04-01T13:06:58.679Z,54.1572
2023-04-01T13:15:21.828Z,49.3914
2023-04-01T13:16:23.394Z,49.1810
2023-04-01T13:17:24.926Z,49.2415
2023-04-01T13:18:26.435Z,49.3866
2023-04-01T13:19:27.902Z,49.7597
2023-04-01T13:20:29.445Z,49.7695
2023-04-01T13:21:30.990Z,49.8895
2023-04-01T13:22:32.512Z,50.0404
2023-04-01T13:23:33.983Z,49.8745
2023-04-01T13:24:35.780Z,49.9892
2023-04-01T13:25:37.054Z,50.0572
2023-04-01T13:26:38.568Z,50.0585
2023-04-01T13:27:40.130Z,50.0323
2023-04-01T13:28:41.631Z,50.0285
2023-04-01T13:29:43.206Z,50.0940
2023-04-01T13:30:44.691Z,50.0811
2023-04-01T13:31:46.225Z,50.0985
2023-04-01T13:32:47.839Z,50.0452
2023-04-01T13:33:49.214Z,50.1025
2023-04-01T13:34:50.838Z,50.0595
2023-04-01T13:35:52.315Z,49.9475
2023-04-01T13:36:53.827Z,50.0714
2023-04-01T13:37:55.353Z,50.0135
2023-04-01T13:38:56.857Z,49.9724
2023-04-01T13:39:58.374Z,49.8144
2023-04-01T13:41:03.498Z,49.9043
2023-04-01T16:09:08.464Z,50.0951
2023-04-01T16:10:09.962Z,49.8971
2023-04-01T16:11:11.504Z,49.7979
2023-04-01T16:12:13.039Z,49.7339
2023-04-01T16:13:14.552Z,49.7009
2023-04-01T16:14:16.085Z,49.5951
2023-04-01T16:15:17.619Z,49.6537
2023-04-01T16:16:19.239Z,49.7598
2023-04-01T16:17:20.732Z,49.8097
2023-04-01T16:18:22.202Z,49.8395
2023-04-01T16:19:23.857Z,49.8109
2023-04-01T16:20:25.260Z,49.8802
2023-04-01T16:21:26.780Z,49.8991
2023-04-01T16:22:28.322Z,49.9113
2023-04-01T16:23:29.841Z,50.0222
2023-04-01T16:24:31.383Z,49.9582
2023-04-01T16:25:33.056Z,49.9597
2023-04-01T16:26:34.451Z,49.8309
2023-04-01T16:27:36.058Z,49.9135
2023-04-01T16:28:37.622Z,49.9933
2023-04-01T16:29:39.130Z,50.0624
2023-04-01T16:30:40.657Z,50.0874
2023-04-01T16:31:42.103Z,49.9898
2023-04-01T16:32:43.868Z,49.9894
2023-04-01T16:33:45.140Z,50.0741
2023-04-01T16:34:46.682Z,50.0546
2023-04-01T16:35:48.337Z,49.9948
2023-04-01T16:36:49.925Z,49.9011
2023-04-01T16:37:51.287Z,49.9404
2023-04-01T16:38:53.013Z,49.9169
2023-04-01T16:39:54.321Z,49.9763
2023-04-01T16:40:55.858Z,49.8994
2023-04-01T16:41:57.390Z,49.8451
2023-04-01T16:42:58.911Z,49.9444
2023-04-01T16:44:00.434Z,49.9960
2023-04-01T16:45:01.970Z,50.0209
2023-04-01T16:46:03.537Z,50.0589
2023-04-01T16:47:05.073Z,49.9918
2023-04-01T16:48:06.686Z,50.0585
2023-04-01T16:49:08.162Z,50.1441
2023-04-01T16:50:09.596Z,50.1656
2023-04-01T16:51:11.183Z,50.1128
2023-04-01T16:52:12.859Z,50.3053
2023-04-01T16:53:14.361Z,50.2379
2023-04-01T16:54:15.708Z,50.2243
2023-04-01T16:55:17.254Z,50.2644
2023-04-01T16:56:18.784Z,50.1207
2023-04-01T16:57:20.385Z,50.1410
2023-04-01T16:58:21.906Z,50.1684
2023-04-01T16:59:23.596Z,50.3562
2023-04-01T17:00:25.703Z,50.5328
2023-04-01T17:01:28.760Z,50.4228
2023-04-01T17:02:28.017Z,50.3871
2023-04-01T17:03:29.474Z,50.3555
2023-04-01T17:04:31.061Z,50.5260
2023-04-01T17:05:32.534Z,50.7108
2023-04-01T17:06:34.053Z,50.8631
2023-04-01T17:07:35.608Z,51.2409
2023-04-01T17:08:37.152Z,51.5911
2023-04-01T17:09:38.649Z,51.7050
2023-04-01T17:10:40.176Z,51.6595
2023-04-01T17:11:41.795Z,52.0928
2023-04-01T17:12:43.407Z,52.3020
2023-04-01T17:13:44.884Z,52.2623
2023-04-01T17:14:46.670Z,52.1233
2023-04-01T17:15:48.063Z,51.7833
2023-04-01T17:16:49.342Z,51.5713
2023-04-01T17:17:50.956Z,51.3550
2023-04-01T17:18:52.386Z,51.2444
2023-04-01T17:19:53.930Z,51.1428
2023-04-01T17:20:55.492Z,51.1132
2023-04-01T17:21:57.002Z,51.0310
2023-04-01T17:22:58.608Z,50.8735
2023-04-01T17:24:00.063Z,50.7911
2023-04-01T17:25:01.564Z,50.8903
2023-04-01T17:26:03.119Z,50.8565
2023-04-01T17:27:04.657Z,50.7006
2023-04-01T17:28:06.158Z,50.7138
2023-04-01T17:29:07.728Z,50.7614
2023-04-01T17:30:09.207Z,50.7593
2023-04-01T17:31:10.853Z,50.7212
2023-04-01T17:32:12.262Z,50.8322
2023-04-01T17:33:13.826Z,50.7859
2023-04-01T17:34:15.344Z,50.7993
2023-04-01T17:35:16.896Z,50.8348
2023-04-01T17:36:18.381Z,50.8771
2023-04-01T17:37:19.981Z,50.9009
2023-04-01T17:38:21.463Z,50.9768
2023-04-01T17:39:22.954Z,50.9986
2023-04-01T17:40:24.658Z,50.8895
2023-04-01T17:41:26.033Z,51.0766
2023-04-01T17:42:27.533Z,50.9762
2023-04-01T17:43:29.084Z,51.0442
2023-04-01T17:44:30.690Z,50.9546
2023-04-01T17:45:32.231Z,50.9899
2023-04-01T17:46:33.733Z,50.9635
2023-04-01T17:47:35.204Z,51.0196
2023-04-01T17:48:36.784Z,51.0409
2023-04-01T17:49:38.278Z,51.0524
2023-04-01T17:50:39.791Z,51.0583
2023-04-01T17:51:41.462Z,51.1085
2023-04-01T17:52:42.803Z,51.0716
2023-04-01T17:53:44.349Z,51.0858
2023-04-01T17:54:45.873Z,51.1093
2023-04-01T17:55:47.430Z,51.0735
2023-04-01T17:56:48.998Z,51.1780
2023-04-01T17:57:50.450Z,51.1635
2023-04-01T17:58:52.018Z,51.1485
2023-04-01T17:59:53.548Z,51.1849
2023-04-01T18:00:55.028Z,51.2543
2023-04-01T18:01:56.593Z,51.5148
2023-04-01T18:02:58.131Z,52.2901
2023-04-01T18:04:00.150Z,52.1725
2023-04-01T18:05:01.166Z,51.8512
2023-04-01T18:06:02.723Z,51.6590
2023-04-01T18:07:04.204Z,51.4998
2023-04-01T18:08:05.703Z,51.3661
2023-04-01T18:09:07.254Z,51.2971
2023-04-01T18:10:08.825Z,51.2961
2023-04-01T18:11:10.305Z,51.2204
2023-04-01T18:12:11.804Z,51.0990
2023-04-01T18:13:13.341Z,51.0734
2023-04-01T18:14:14.943Z,51.0201
2023-04-01T18:15:16.421Z,51.0914
2023-04-01T18:16:18.134Z,51.3000
2023-04-01T18:17:19.515Z,51.1858
2023-04-01T18:18:20.984Z,51.3871
2023-04-01T18:19:22.527Z,51.3177
2023-04-01T18:20:24.028Z,51.2794
2023-04-01T18:21:25.582Z,51.3105
2023-04-01T18:22:27.092Z,51.3570
2023-04-01T18:23:28.776Z,51.3708
2023-04-01T18:24:30.162Z,51.3586
2023-04-01T18:25:31.664Z,51.1097
2023-04-01T18:26:33.237Z,51.1970
2023-04-01T18:27:34.765Z,51.2750
2023-04-01T18:28:36.235Z,51.2124
2023-04-01T18:29:37.856Z,51.1836
2023-04-01T18:30:39.321Z,51.1570
2023-04-01T18:31:40.899Z,51.1472
2023-04-01T18:32:42.497Z,51.1232
2023-04-01T18:33:43.958Z,51.0854
2023-04-01T18:34:45.440Z,51.0580
2023-04-01T18:35:47.051Z,51.0630
2023-04-01T18:36:49.437Z,51.1403
